createdAt,value
2023-02-17T00:04:52.290Z,34.10
2023-02-17T00:15:16.461Z,31.70
2023-02-17T00:25:41.230Z,29.10
2023-02-17T00:36:10.846Z,29.60
2023-02-17T00:46:35.070Z,34.50
2023-02-17T00:56:59.456Z,25.60
2023-02-17T01:07:23.674Z,26.90
2023-02-17T01:17:47.892Z,24.50
2023-02-17T01:28:16.288Z,22.20
2023-02-17T01:38:40.893Z,21.80
2023-02-17T01:49:15.144Z,19.90
2023-02-17T01:59:40.316Z,23.00
2023-02-17T02:10:07.517Z,20.60
2023-02-17T02:21:08.592Z,24.20
2023-02-17T02:31:51.790Z,22.40
2023-02-17T02:42:19.339Z,17.60
2023-02-17T02:52:54.875Z,22.00
2023-02-17T03:03:25.756Z,19.80
2023-02-17T03:13:49.969Z,19.50
2023-02-17T03:24:14.350Z,19.00
2023-02-17T03:34:39.415Z,18.30
2023-02-17T03:45:05.248Z,18.60
2023-02-17T03:55:29.488Z,19.50
2023-02-17T04:05:54.126Z,24.60
2023-02-17T04:16:18.494Z,18.30
2023-02-17T04:26:42.683Z,17.70
2023-02-17T04:37:07.047Z,22.20
2023-02-17T04:47:31.235Z,19.80
2023-02-17T04:57:56.161Z,18.20
2023-02-17T05:08:21.716Z,20.20
2023-02-17T05:18:46.575Z,22.80
2023-02-17T05:29:11.526Z,23.70
2023-02-17T05:39:36.428Z,28.90
2023-02-17T05:50:01.260Z,24.10
2023-02-17T06:00:26.593Z,28.50
2023-02-17T06:10:52.280Z,23.70
2023-02-17T06:21:16.474Z,23.90
2023-02-17T06:31:41.436Z,19.40
2023-02-17T06:42:06.352Z,23.00
2023-02-17T06:52:31.383Z,16.60
2023-02-17T07:02:56.324Z,17.80
2023-02-17T07:13:21.143Z,21.00
2023-02-17T07:23:45.959Z,18.30
2023-02-17T07:34:10.868Z,17.10
2023-02-17T07:44:35.987Z,16.10
2023-02-17T07:55:01.281Z,20.60
2023-02-17T08:05:25.514Z,21.50
2023-02-17T08:15:50.507Z,17.10
2023-02-17T08:26:15.350Z,16.60
2023-02-17T08:36:40.949Z,19.00
2023-02-17T08:47:06.474Z,20.90
2023-02-17T08:57:30.727Z,20.00
2023-02-17T09:07:54.915Z,19.80
2023-02-17T09:18:19.946Z,21.00
2023-02-17T09:28:44.880Z,19.30
2023-02-17T09:39:11.566Z,16.20
2023-02-17T09:49:41.168Z,11.70
2023-02-17T10:00:12.643Z,17.30
2023-02-17T10:10:43.436Z,13.10
2023-02-17T10:21:13.224Z,15.80
2023-02-17T10:31:45.120Z,15.00
2023-02-17T10:42:17.379Z,14.80
2023-02-17T10:52:42.486Z,13.00
2023-02-17T11:03:06.784Z,13.10
2023-02-17T11:13:37.457Z,14.70
2023-02-17T11:24:05.023Z,15.40
2023-02-17T11:34:32.375Z,11.60
2023-02-17T11:44:59.295Z,15.40
2023-02-17T11:55:31.196Z,14.40
2023-02-17T12:06:08.620Z,15.30
2023-02-17T12:16:45.455Z,14.10
2023-02-17T12:27:24.103Z,15.90
2023-02-17T12:37:53.506Z,16.70
2023-02-17T12:48:26.337Z,13.10
2023-02-17T12:58:52.543Z,15.10
2023-02-17T13:09:26.288Z,13.20
2023-02-17T13:20:03.893Z,13.20
2023-02-17T13:30:38.524Z,9.90
2023-02-17T13:41:06.446Z,10.20
2023-02-17T13:51:32.956Z,9.40
2023-02-17T14:01:57.306Z,9.40
2023-02-17T14:12:23.634Z,12.00
2023-02-17T14:23:03.936Z,10.20
2023-02-17T14:33:28.987Z,11.00
2023-02-17T14:43:53.177Z,12.30
2023-02-17T14:54:18.751Z,12.80
2023-02-17T15:04:43.394Z,10.60
2023-02-17T15:15:14.089Z,12.10
2023-02-17T15:25:38.318Z,8.50
2023-02-17T15:36:02.575Z,9.10
2023-02-17T15:46:30.793Z,9.40
2023-02-17T15:56:55.036Z,9.90
2023-02-17T16:07:19.327Z,8.00
2023-02-17T16:17:43.735Z,10.70
2023-02-17T16:28:15.112Z,10.80
2023-02-17T16:38:39.293Z,11.80
2023-02-17T16:49:19.168Z,11.30
2023-02-17T16:59:43.559Z,11.80
2023-02-17T17:10:16.736Z,11.10
2023-02-17T17:20:41.872Z,10.00
2023-02-17T17:31:06.212Z,10.20
2023-02-17T17:41:34.448Z,9.00
2023-02-17T17:51:58.630Z,8.30
2023-02-17T18:02:22.841Z,7.40
2023-02-17T18:12:48.240Z,6.70
2023-02-17T18:23:12.745Z,7.50
2023-02-17T18:33:38.159Z,7.30
2023-02-17T18:44:05.465Z,6.20
2023-02-17T18:54:29.799Z,8.30
2023-02-17T19:05:02.452Z,8.10
2023-02-17T19:15:26.703Z,9.50
2023-02-17T19:25:51.020Z,6.00
2023-02-17T19:36:17.144Z,6.60
2023-02-17T19:46:41.694Z,7.50
2023-02-17T19:57:06.082Z,8.00
2023-02-17T20:07:31.148Z,6.40
2023-02-17T20:17:55.302Z,7.20
2023-02-17T20:28:20.487Z,7.10
2023-02-17T20:38:45.653Z,7.80
2023-02-17T20:49:10.634Z,8.00
2023-02-17T20:59:35.488Z,7.50
2023-02-17T21:10:00.321Z,7.50
2023-02-17T21:20:25.214Z,7.30
2023-02-17T21:30:50.232Z,6.40
2023-02-17T21:41:17.937Z,6.90
2023-02-17T21:51:42.235Z,5.70
2023-02-17T22:02:06.498Z,5.30
2023-02-17T22:12:30.751Z,5.10
2023-02-17T22:22:55.315Z,4.70
2023-02-17T22:33:19.570Z,5.30
2023-02-17T22:43:44.807Z,4.80
2023-02-17T22:54:09.610Z,4.50
2023-02-17T23:04:33.982Z,5.40
2023-02-17T23:14:58.204Z,4.90
2023-02-17T23:25:22.426Z,4.80
2023-02-17T23:35:48.166Z,4.90
2023-02-17T23:46:12.584Z,4.10
2023-02-17T23:56:37.655Z,4.40
